Portada
METAR-TAF:

METAR-TAF

Aeroports :

Aeroport de Cherif Al Idrissi

Al Hoceima, Marroc

latitud: 35-11N, longitud: 003-51W, altitud: 27 m

Observació

L'informe es va fer fa 21 minuts, a les 05:00 UTC
Vent 7 kt del Oest, variant entre Sud-Oest i Nord-Oest
Temperatura 15°C
Pressió 1021 hPa
Visibilitat 10 km o més
Escasses núvols a una alçada de 1300 ft

METAR: GMTA 140500Z 26007KT 230V310 9999 FEW013 15/// Q1021 NOSIG

Hora: 05:21 (05:21 UTC)

Pronòstic

L'informe es va fer fa 6 hores i 21 minuts, a les 23:00 UTC
Pronòstic vàlid del 14 a les 00 UTC al 15 a les 06 UTC
Vent 14 kt del Oest/Nord-Oest
Visibilitat 10 km o més
sense núvols per sota de 1500 mi sense presència de cumulonimbus.

TAF: GMTA 132300Z 1400/1506 30014KT CAVOK

Observacions i pronòstics meteorològics de més de 4000 aeroports (METAR i TAF).

Les estacions disponibles són els punts grocs i vermells al mapa.

Posi el ratolí al punt desitjat per veure el nom de l'estació.

Feu clic per veure les observacions i els pronòstics meteorològics.

Per canviar el mapa: feu clic els botons verds amb una creu de color negre per apropar; al botó verd amb un guió per allunyar la imatge; o en les fletxes verdes per a mapes adjacents.


METAR-TAF: